sensor_id;sensor_type;location;lat;lon;timestamp;pressure;altitude;pressure_sealevel;temperature;humidity
58245;BME280;44550;43.864;25.986;2023-07-16T00:06:43;101143.03;;;25.19;67.43
58245;BME280;44550;43.864;25.986;2023-07-16T00:11:25;101143.47;;;25.29;66.94
58245;BME280;44550;43.864;25.986;2023-07-16T00:16:15;101133.72;;;25.64;65.05
58245;BME280;44550;43.864;25.986;2023-07-16T00:21:19;101142.22;;;25.72;64.55
58245;BME280;44550;43.864;25.986;2023-07-16T00:25:46;101140.78;;;25.48;65.62
58245;BME280;44550;43.864;25.986;2023-07-16T00:30:46;101143.63;;;25.26;66.16
58245;BME280;44550;43.864;25.986;2023-07-16T00:36:07;101140.66;;;25.32;65.68
58245;BME280;44550;43.864;25.986;2023-07-16T00:41:02;101126.25;;;25.16;66.16
58245;BME280;44550;43.864;25.986;2023-07-16T00:45:14;101121.81;;;24.96;66.94
58245;BME280;44550;43.864;25.986;2023-07-16T00:49:26;101117.25;;;24.79;67.77
58245;BME280;44550;43.864;25.986;2023-07-16T00:55:06;101081.38;;;24.45;68.00
58245;BME280;44550;43.864;25.986;2023-07-16T01:05:00;101116.03;;;24.86;67.03
58245;BME280;44550;43.864;25.986;2023-07-16T01:10:30;101112.22;;;25.11;66.21
58245;BME280;44550;43.864;25.986;2023-07-16T01:15:29;101108.47;;;25.34;65.10
58245;BME280;44550;43.864;25.986;2023-07-16T01:19:59;101112.63;;;25.39;64.29
58245;BME280;44550;43.864;25.986;2023-07-16T01:29:34;101118.31;;;25.33;63.69
58245;BME280;44550;43.864;25.986;2023-07-16T01:34:09;101103.19;;;25.49;62.89
58245;BME280;44550;43.864;25.986;2023-07-16T01:53:20;101107.78;;;26.52;58.52
58245;BME280;44550;43.864;25.986;2023-07-16T01:57:41;101089.88;;;26.52;58.24
58245;BME280;44550;43.864;25.986;2023-07-16T02:02:54;101097.19;;;26.82;56.51
58245;BME280;44550;43.864;25.986;2023-07-16T02:17:05;101104.63;;;25.93;58.52
58245;BME280;44550;43.864;25.986;2023-07-16T02:21:27;101110.50;;;26.34;58.09
58245;BME280;44550;43.864;25.986;2023-07-16T02:25:57;101107.47;;;26.58;57.02
58245;BME280;44550;43.864;25.986;2023-07-16T02:30:45;101120.03;;;26.40;55.97
58245;BME280;44550;43.864;25.986;2023-07-16T02:35:42;101110.09;;;26.24;57.21
58245;BME280;44550;43.864;25.986;2023-07-16T02:41:07;101117.41;;;25.69;57.86
58245;BME280;44550;43.864;25.986;2023-07-16T02:45:59;101120.88;;;24.78;61.39
58245;BME280;44550;43.864;25.986;2023-07-16T03:13:48;101118.31;;;25.33;60.22
58245;BME280;44550;43.864;25.986;2023-07-16T03:25:09;101127.53;;;25.81;58.44
58245;BME280;44550;43.864;25.986;2023-07-16T03:30:36;101124.25;;;26.11;57.31
58245;BME280;44550;43.864;25.986;2023-07-16T03:41:06;101122.56;;;26.25;57.26
58245;BME280;44550;43.864;25.986;2023-07-16T03:52:49;101133.03;;;28.36;50.55
58245;BME280;44550;43.864;25.986;2023-07-16T03:57:50;101146.44;;;29.50;47.88
58245;BME280;44550;43.864;25.986;2023-07-16T04:02:28;101136.78;;;29.88;46.21
58245;BME280;44550;43.864;25.986;2023-07-16T04:06:52;101146.25;;;30.84;43.47
58245;BME280;44550;43.864;25.986;2023-07-16T04:15:48;101152.53;;;31.58;39.78
58245;BME280;44550;43.864;25.986;2023-07-16T04:24:59;101161.22;;;31.14;41.29
58245;BME280;44550;43.864;25.986;2023-07-16T04:29:47;101154.03;;;30.63;42.28
58245;BME280;44550;43.864;25.986;2023-07-16T04:39:18;101165.03;;;30.86;41.66
58245;BME280;44550;43.864;25.986;2023-07-16T04:43:49;101167.91;;;31.08;41.61
58245;BME280;44550;43.864;25.986;2023-07-16T04:48:21;101160.09;;;31.29;41.57
58245;BME280;44550;43.864;25.986;2023-07-16T04:52:35;101173.06;;;31.37;40.91
58245;BME280;44550;43.864;25.986;2023-07-16T04:56:51;101163.13;;;31.62;40.83
58245;BME280;44550;43.864;25.986;2023-07-16T05:05:46;101176.69;;;30.48;42.85
58245;BME280;44550;43.864;25.986;2023-07-16T05:10:06;101167.19;;;30.55;42.61
58245;BME280;44550;43.864;25.986;2023-07-16T05:14:18;101181.00;;;30.38;44.35
58245;BME280;44550;43.864;25.986;2023-07-16T05:18:41;101171.41;;;30.98;42.20
58245;BME280;44550;43.864;25.986;2023-07-16T05:23:06;101172.47;;;32.05;40.96
58245;BME280;44550;43.864;25.986;2023-07-16T05:27:11;101171.84;;;32.48;39.44
58245;BME280;44550;43.864;25.986;2023-07-16T05:31:27;101158.81;;;32.18;40.06
58245;BME280;44550;43.864;25.986;2023-07-16T05:35:33;101174.06;;;32.77;39.18
58245;BME280;44550;43.864;25.986;2023-07-16T05:39:57;101173.31;;;32.53;38.86
58245;BME280;44550;43.864;25.986;2023-07-16T05:44:04;101175.91;;;32.43;39.47
58245;BME280;44550;43.864;25.986;2023-07-16T05:48:25;101182.69;;;32.71;38.99
58245;BME280;44550;43.864;25.986;2023-07-16T05:52:45;101180.84;;;32.94;39.02
58245;BME280;44550;43.864;25.986;2023-07-16T05:57:29;101179.97;;;32.93;38.52
58245;BME280;44550;43.864;25.986;2023-07-16T06:01:39;101174.53;;;33.50;37.95
58245;BME280;44550;43.864;25.986;2023-07-16T06:06:10;101181.03;;;33.47;38.10
58245;BME280;44550;43.864;25.986;2023-07-16T06:15:56;101182.91;;;33.58;41.47
58245;BME280;44550;43.864;25.986;2023-07-16T06:25:59;101189.19;;;32.57;45.26
58245;BME280;44550;43.864;25.986;2023-07-16T06:30:38;101185.88;;;32.42;46.57
58245;BME280;44550;43.864;25.986;2023-07-16T06:34:43;101192.28;;;32.64;46.05
58245;BME280;44550;43.864;25.986;2023-07-16T06:38:53;101185.69;;;33.02;44.34
58245;BME280;44550;43.864;25.986;2023-07-16T06:43:20;101194.28;;;33.29;44.48
58245;BME280;44550;43.864;25.986;2023-07-16T06:47:45;101191.75;;;33.71;43.30
58245;BME280;44550;43.864;25.986;2023-07-16T06:52:06;101192.97;;;33.78;43.06
58245;BME280;44550;43.864;25.986;2023-07-16T06:56:21;101195.63;;;33.89;42.05
58245;BME280;44550;43.864;25.986;2023-07-16T07:05:52;101176.88;;;33.43;42.03
58245;BME280;44550;43.864;25.986;2023-07-16T07:10:34;101197.16;;;33.05;44.00
58245;BME280;44550;43.864;25.986;2023-07-16T07:14:52;101196.88;;;32.97;44.30
58245;BME280;44550;43.864;25.986;2023-07-16T07:19:21;101200.34;;;33.21;46.00
58245;BME280;44550;43.864;25.986;2023-07-16T07:23:45;101195.88;;;33.20;45.37
58245;BME280;44550;43.864;25.986;2023-07-16T07:32:59;101188.84;;;33.84;43.41
58245;BME280;44550;43.864;25.986;2023-07-16T07:37:35;101194.69;;;34.00;43.66
58245;BME280;44550;43.864;25.986;2023-07-16T07:42:17;101193.56;;;33.82;43.60
58245;BME280;44550;43.864;25.986;2023-07-16T07:46:36;101180.34;;;33.77;42.89
58245;BME280;44550;43.864;25.986;2023-07-16T07:51:41;101170.88;;;33.28;44.28
58245;BME280;44550;43.864;25.986;2023-07-16T07:57:08;101179.88;;;33.29;45.71
58245;BME280;44550;43.864;25.986;2023-07-16T08:06:02;101168.78;;;33.75;42.48
58245;BME280;44550;43.864;25.986;2023-07-16T08:10:33;101175.69;;;33.79;42.02
58245;BME280;44550;43.864;25.986;2023-07-16T08:15:10;101182.78;;;33.91;41.56
58245;BME280;44550;43.864;25.986;2023-07-16T08:19:59;101173.44;;;34.17;41.88
58245;BME280;44550;43.864;25.986;2023-07-16T08:31:47;101169.06;;;34.04;40.95
58245;BME280;44550;43.864;25.986;2023-07-16T08:38:00;101172.91;;;34.02;41.99
58245;BME280;44550;43.864;25.986;2023-07-16T08:42:42;101173.81;;;34.33;40.78
58245;BME280;44550;43.864;25.986;2023-07-16T08:51:09;101143.50;;;34.07;42.77
58245;BME280;44550;43.864;25.986;2023-07-16T08:56:00;101147.16;;;34.38;42.17
58245;BME280;44550;43.864;25.986;2023-07-16T09:00:56;101160.41;;;34.31;42.42
58245;BME280;44550;43.864;25.986;2023-07-16T09:05:56;101159.84;;;34.17;42.91
58245;BME280;44550;43.864;25.986;2023-07-16T09:11:10;101164.28;;;34.38;42.79
58245;BME280;44550;43.864;25.986;2023-07-16T09:16:00;101159.53;;;34.52;42.47
58245;BME280;44550;43.864;25.986;2023-07-16T09:43:26;101141.84;;;35.38;34.62
58245;BME280;44550;43.864;25.986;2023-07-16T09:48:07;101141.69;;;35.40;35.55
58245;BME280;44550;43.864;25.986;2023-07-16T09:52:43;101144.19;;;35.82;34.36
58245;BME280;44550;43.864;25.986;2023-07-16T09:57:48;101125.00;;;35.54;35.47
58245;BME280;44550;43.864;25.986;2023-07-16T10:03:02;101130.72;;;35.61;36.99
58245;BME280;44550;43.864;25.986;2023-07-16T10:07:59;101120.84;;;35.79;34.94
58245;BME280;44550;43.864;25.986;2023-07-16T10:17:24;101102.31;;;36.21;33.62
58245;BME280;44550;43.864;25.986;2023-07-16T10:21:46;101111.00;;;36.44;34.31
58245;BME280;44550;43.864;25.986;2023-07-16T10:26:17;101097.81;;;36.50;33.46
58245;BME280;44550;43.864;25.986;2023-07-16T10:30:28;101110.66;;;36.20;33.65
58245;BME280;44550;43.864;25.986;2023-07-16T10:34:31;101112.38;;;35.82;33.22
58245;BME280;44550;43.864;25.986;2023-07-16T10:39:07;101095.63;;;35.87;34.00
58245;BME280;44550;43.864;25.986;2023-07-16T10:44:01;101105.34;;;36.09;33.80
58245;BME280;44550;43.864;25.986;2023-07-16T10:48:24;101114.00;;;36.41;33.09
58245;BME280;44550;43.864;25.986;2023-07-16T10:53:08;101098.28;;;36.73;33.14
58245;BME280;44550;43.864;25.986;2023-07-16T10:58:05;101094.97;;;37.06;32.98
58245;BME280;44550;43.864;25.986;2023-07-16T11:02:42;101088.88;;;36.85;30.64
58245;BME280;44550;43.864;25.986;2023-07-16T11:07:09;101086.94;;;37.05;31.52
58245;BME280;44550;43.864;25.986;2023-07-16T11:11:38;101082.78;;;37.46;30.46
58245;BME280;44550;43.864;25.986;2023-07-16T11:16:06;101078.78;;;37.41;30.15
58245;BME280;44550;43.864;25.986;2023-07-16T11:20:52;101074.16;;;36.50;31.84
58245;BME280;44550;43.864;25.986;2023-07-16T11:30:00;101071.84;;;36.83;31.27
58245;BME280;44550;43.864;25.986;2023-07-16T11:34:04;101067.84;;;36.77;31.90
58245;BME280;44550;43.864;25.986;2023-07-16T11:38:18;101054.16;;;36.87;30.85
58245;BME280;44550;43.864;25.986;2023-07-16T11:42:23;101061.38;;;36.78;31.36
58245;BME280;44550;43.864;25.986;2023-07-16T11:46:31;101067.22;;;37.11;30.22
58245;BME280;44550;43.864;25.986;2023-07-16T11:50:55;101061.38;;;37.42;29.72
58245;BME280;44550;43.864;25.986;2023-07-16T11:55:20;101063.00;;;37.44;30.31
58245;BME280;44550;43.864;25.986;2023-07-16T11:59:22;101049.03;;;37.47;29.51
58245;BME280;44550;43.864;25.986;2023-07-16T12:03:35;101054.41;;;37.57;28.89
58245;BME280;44550;43.864;25.986;2023-07-16T12:07:47;101052.03;;;37.80;29.15
58245;BME280;44550;43.864;25.986;2023-07-16T12:11:49;101056.25;;;37.92;28.66
58245;BME280;44550;43.864;25.986;2023-07-16T12:20:13;101061.38;;;37.95;28.29
58245;BME280;44550;43.864;25.986;2023-07-16T12:24:16;101051.16;;;37.97;28.03
58245;BME280;44550;43.864;25.986;2023-07-16T12:28:20;101053.50;;;38.18;27.71
58245;BME280;44550;43.864;25.986;2023-07-16T12:32:35;101041.16;;;38.06;28.16
58245;BME280;44550;43.864;25.986;2023-07-16T12:36:48;101039.66;;;38.12;28.66
58245;BME280;44550;43.864;25.986;2023-07-16T12:40:56;101038.13;;;38.17;28.34
58245;BME280;44550;43.864;25.986;2023-07-16T12:44:57;101034.50;;;38.08;27.92
58245;BME280;44550;43.864;25.986;2023-07-16T12:48:58;101039.22;;;37.98;27.90
58245;BME280;44550;43.864;25.986;2023-07-16T12:53:13;101037.69;;;38.30;28.07
58245;BME280;44550;43.864;25.986;2023-07-16T12:57:24;101029.72;;;38.11;28.07
58245;BME280;44550;43.864;25.986;2023-07-16T13:01:25;101036.88;;;37.85;27.52
58245;BME280;44550;43.864;25.986;2023-07-16T13:05:29;101031.69;;;37.38;28.43
58245;BME280;44550;43.864;25.986;2023-07-16T13:09:33;101039.41;;;37.25;28.55
58245;BME280;44550;43.864;25.986;2023-07-16T13:13:42;101016.28;;;37.29;28.91
58245;BME280;44550;43.864;25.986;2023-07-16T13:18:12;101027.88;;;37.67;28.74
58245;BME280;44550;43.864;25.986;2023-07-16T13:22:23;101021.38;;;38.12;27.93
58245;BME280;44550;43.864;25.986;2023-07-16T13:26:29;101016.59;;;38.40;27.00
58245;BME280;44550;43.864;25.986;2023-07-16T13:30:48;101010.72;;;38.77;26.67
58245;BME280;44550;43.864;25.986;2023-07-16T13:34:53;101010.59;;;38.87;27.03
58245;BME280;44550;43.864;25.986;2023-07-16T13:39:04;101012.38;;;39.05;26.58
58245;BME280;44550;43.864;25.986;2023-07-16T13:43:07;101003.81;;;38.99;27.06
58245;BME280;44550;43.864;25.986;2023-07-16T13:47:19;101004.69;;;39.24;26.64
58245;BME280;44550;43.864;25.986;2023-07-16T13:51:27;101004.91;;;38.81;26.18
58245;BME280;44550;43.864;25.986;2023-07-16T13:55:36;101002.13;;;38.56;26.25
58245;BME280;44550;43.864;25.986;2023-07-16T13:59:55;101004.31;;;38.44;26.48
58245;BME280;44550;43.864;25.986;2023-07-16T14:03:59;101003.19;;;38.63;26.19
58245;BME280;44550;43.864;25.986;2023-07-16T14:08:01;100959.06;;;38.42;26.24
58245;BME280;44550;43.864;25.986;2023-07-16T14:12:08;100999.06;;;38.67;25.83
58245;BME280;44550;43.864;25.986;2023-07-16T14:16:10;100989.00;;;38.60;26.35
58245;BME280;44550;43.864;25.986;2023-07-16T14:20:22;100989.38;;;38.30;27.89
58245;BME280;44550;43.864;25.986;2023-07-16T14:24:27;100993.56;;;38.43;27.54
58245;BME280;44550;43.864;25.986;2023-07-16T14:28:41;100984.28;;;38.36;26.95
58245;BME280;44550;43.864;25.986;2023-07-16T14:32:44;100975.69;;;38.22;26.87
58245;BME280;44550;43.864;25.986;2023-07-16T14:36:53;100971.19;;;38.47;27.36
58245;BME280;44550;43.864;25.986;2023-07-16T14:52:31;100962.44;;;38.94;26.62
58245;BME280;44550;43.864;25.986;2023-07-16T14:58:01;100948.44;;;39.46;25.72
58245;BME280;44550;43.864;25.986;2023-07-16T15:04:01;100947.25;;;39.57;25.96
58245;BME280;44550;43.864;25.986;2023-07-16T15:08:57;100955.28;;;39.51;25.60
58245;BME280;44550;43.864;25.986;2023-07-16T15:13:13;100952.00;;;39.63;25.37
58245;BME280;44550;43.864;25.986;2023-07-16T15:17:14;100949.41;;;39.70;25.24
58245;BME280;44550;43.864;25.986;2023-07-16T15:21:31;100949.41;;;39.86;26.00
58245;BME280;44550;43.864;25.986;2023-07-16T15:25:39;100955.50;;;40.05;24.65
58245;BME280;44550;43.864;25.986;2023-07-16T15:29:42;100947.66;;;39.93;27.23
58245;BME280;44550;43.864;25.986;2023-07-16T15:33:42;100952.31;;;39.85;28.61
58245;BME280;44550;43.864;25.986;2023-07-16T15:37:46;100947.56;;;39.62;30.41
58245;BME280;44550;43.864;25.986;2023-07-16T15:41:50;100935.09;;;39.27;29.72
58245;BME280;44550;43.864;25.986;2023-07-16T15:45:59;100947.56;;;39.13;30.24
58245;BME280;44550;43.864;25.986;2023-07-16T15:51:11;100950.81;;;39.00;29.77
58245;BME280;44550;43.864;25.986;2023-07-16T15:55:29;100954.59;;;39.16;29.86
58245;BME280;44550;43.864;25.986;2023-07-16T16:01:20;100959.69;;;38.86;29.09
58245;BME280;44550;43.864;25.986;2023-07-16T16:04:49;100946.13;;;38.18;29.26
58245;BME280;44550;43.864;25.986;2023-07-16T16:09:03;100949.03;;;37.90;28.19
58245;BME280;44550;43.864;25.986;2023-07-16T16:13:07;100957.22;;;37.90;29.01
58245;BME280;44550;43.864;25.986;2023-07-16T16:17:18;100954.41;;;37.74;29.23
58245;BME280;44550;43.864;25.986;2023-07-16T16:21:40;100953.59;;;37.81;29.45
58245;BME280;44550;43.864;25.986;2023-07-16T16:25:42;100935.28;;;37.66;28.60
58245;BME280;44550;43.864;25.986;2023-07-16T16:29:49;100953.16;;;37.24;29.30
58245;BME280;44550;43.864;25.986;2023-07-16T16:33:59;100954.94;;;37.33;28.87
58245;BME280;44550;43.864;25.986;2023-07-16T16:38:18;100951.25;;;36.99;29.06
58245;BME280;44550;43.864;25.986;2023-07-16T16:42:21;100954.78;;;36.81;29.03
58245;BME280;44550;43.864;25.986;2023-07-16T16:46:22;100957.28;;;36.75;28.65
58245;BME280;44550;43.864;25.986;2023-07-16T16:50:30;100953.84;;;36.55;28.77
58245;BME280;44550;43.864;25.986;2023-07-16T16:54:53;100961.31;;;36.53;28.98
58245;BME280;44550;43.864;25.986;2023-07-16T16:58:59;100960.13;;;36.55;28.78
58245;BME280;44550;43.864;25.986;2023-07-16T17:03:38;100964.00;;;36.62;28.69
58245;BME280;44550;43.864;25.986;2023-07-16T17:08:14;100963.19;;;36.42;29.25
58245;BME280;44550;43.864;25.986;2023-07-16T17:12:59;100966.69;;;36.35;29.55
58245;BME280;44550;43.864;25.986;2023-07-16T17:21:59;100962.00;;;36.27;29.90
58245;BME280;44550;43.864;25.986;2023-07-16T17:26:57;100971.06;;;36.45;29.84
58245;BME280;44550;43.864;25.986;2023-07-16T17:31:49;100965.91;;;36.42;29.53
58245;BME280;44550;43.864;25.986;2023-07-16T17:36:20;100967.69;;;36.34;29.53
58245;BME280;44550;43.864;25.986;2023-07-16T17:41:19;100962.25;;;36.34;29.55
58245;BME280;44550;43.864;25.986;2023-07-16T17:46:17;100969.50;;;36.15;29.86
58245;BME280;44550;43.864;25.986;2023-07-16T17:50:54;100971.28;;;35.97;30.38
58245;BME280;44550;43.864;25.986;2023-07-16T17:55:11;100974.19;;;35.76;31.16
58245;BME280;44550;43.864;25.986;2023-07-16T17:59:25;100968.34;;;35.71;31.24
58245;BME280;44550;43.864;25.986;2023-07-16T18:04:15;100966.94;;;35.67;31.58
58245;BME280;44550;43.864;25.986;2023-07-16T18:13:12;100978.09;;;35.44;32.45
58245;BME280;44550;43.864;25.986;2023-07-16T18:18:06;100975.81;;;35.40;32.33
58245;BME280;44550;43.864;25.986;2023-07-16T18:22:33;100979.97;;;35.34;32.07
58245;BME280;44550;43.864;25.986;2023-07-16T18:27:05;100990.13;;;35.22;32.54
58245;BME280;44550;43.864;25.986;2023-07-16T18:31:09;100988.28;;;35.03;32.83
58245;BME280;44550;43.864;25.986;2023-07-16T18:35:52;100997.53;;;34.81;32.57
58245;BME280;44550;43.864;25.986;2023-07-16T18:39:51;100996.31;;;34.55;33.09
58245;BME280;44550;43.864;25.986;2023-07-16T18:43:55;101007.00;;;34.16;34.01
58245;BME280;44550;43.864;25.986;2023-07-16T18:47:59;101013.09;;;33.87;33.79
58245;BME280;44550;43.864;25.986;2023-07-16T18:52:01;101012.28;;;34.08;33.47
58245;BME280;44550;43.864;25.986;2023-07-16T18:56:10;101013.59;;;34.23;33.49
58245;BME280;44550;43.864;25.986;2023-07-16T19:00:40;101020.84;;;34.13;33.65
58245;BME280;44550;43.864;25.986;2023-07-16T19:04:59;101034.22;;;32.98;36.79
58245;BME280;44550;43.864;25.986;2023-07-16T19:09:05;101036.41;;;32.93;37.54
58245;BME280;44550;43.864;25.986;2023-07-16T19:13:23;101037.78;;;31.98;39.81
58245;BME280;44550;43.864;25.986;2023-07-16T19:17:31;101036.78;;;31.52;40.56
58245;BME280;44550;43.864;25.986;2023-07-16T19:21:32;101038.38;;;31.31;40.53
58245;BME280;44550;43.864;25.986;2023-07-16T19:25:44;101024.59;;;31.23;40.03
58245;BME280;44550;43.864;25.986;2023-07-16T19:29:54;101040.31;;;31.29;39.70
58245;BME280;44550;43.864;25.986;2023-07-16T19:34:06;100987.41;;;30.78;39.60
58245;BME280;44550;43.864;25.986;2023-07-16T19:38:39;101037.84;;;31.02;39.47
58245;BME280;44550;43.864;25.986;2023-07-16T19:43:15;101033.53;;;30.62;39.96
58245;BME280;44550;43.864;25.986;2023-07-16T19:47:44;101041.09;;;30.57;39.98
58245;BME280;44550;43.864;25.986;2023-07-16T19:52:00;101044.38;;;30.37;39.91
58245;BME280;44550;43.864;25.986;2023-07-16T19:56:16;101027.31;;;29.98;40.46
58245;BME280;44550;43.864;25.986;2023-07-16T20:00:43;101041.44;;;30.02;40.54
58245;BME280;44550;43.864;25.986;2023-07-16T20:05:10;101044.03;;;29.90;40.65
58245;BME280;44550;43.864;25.986;2023-07-16T20:09:15;101043.16;;;29.77;40.89
58245;BME280;44550;43.864;25.986;2023-07-16T20:13:23;101044.38;;;29.59;41.21
58245;BME280;44550;43.864;25.986;2023-07-16T20:17:32;101038.34;;;29.55;41.14
58245;BME280;44550;43.864;25.986;2023-07-16T20:21:59;101036.59;;;29.41;41.35
58245;BME280;44550;43.864;25.986;2023-07-16T20:26:58;101028.78;;;29.37;41.25
58245;BME280;44550;43.864;25.986;2023-07-16T20:31:59;101022.50;;;29.23;41.32
58245;BME280;44550;43.864;25.986;2023-07-16T20:47:38;101052.13;;;28.82;42.23
58245;BME280;44550;43.864;25.986;2023-07-16T20:52:16;101050.81;;;28.75;42.41
58245;BME280;44550;43.864;25.986;2023-07-16T20:56:55;101049.19;;;28.58;42.73
58245;BME280;44550;43.864;25.986;2023-07-16T21:06:30;101056.75;;;28.37;43.37
58245;BME280;44550;43.864;25.986;2023-07-16T21:11:04;101052.44;;;28.20;43.70
58245;BME280;44550;43.864;25.986;2023-07-16T21:15:30;101037.63;;;27.99;44.00
58245;BME280;44550;43.864;25.986;2023-07-16T21:20:03;101059.13;;;27.99;44.18
58245;BME280;44550;43.864;25.986;2023-07-16T21:24:23;101052.63;;;28.03;43.81
58245;BME280;44550;43.864;25.986;2023-07-16T21:28:31;101056.66;;;28.10;43.55
58245;BME280;44550;43.864;25.986;2023-07-16T21:32:39;101064.03;;;27.92;43.83
58245;BME280;44550;43.864;25.986;2023-07-16T21:36:52;101056.94;;;27.75;44.12
58245;BME280;44550;43.864;25.986;2023-07-16T21:41:03;101060.19;;;27.66;44.37
58245;BME280;44550;43.864;25.986;2023-07-16T21:45:14;101062.03;;;27.50;44.82
58245;BME280;44550;43.864;25.986;2023-07-16T21:49:25;101058.75;;;27.45;44.65
58245;BME280;44550;43.864;25.986;2023-07-16T21:54:08;101067.25;;;27.37;44.82
58245;BME280;44550;43.864;25.986;2023-07-16T21:58:45;101068.97;;;27.38;44.88
58245;BME280;44550;43.864;25.986;2023-07-16T22:03:40;101074.88;;;27.45;44.48
58245;BME280;44550;43.864;25.986;2023-07-16T22:08:02;101079.47;;;27.58;44.02
58245;BME280;44550;43.864;25.986;2023-07-16T22:12:34;101078.88;;;27.37;44.39
58245;BME280;44550;43.864;25.986;2023-07-16T22:16:53;101081.56;;;27.37;44.15
58245;BME280;44550;43.864;25.986;2023-07-16T22:21:04;101083.03;;;27.27;44.20
58245;BME280;44550;43.864;25.986;2023-07-16T22:25:30;101071.44;;;27.27;44.13
58245;BME280;44550;43.864;25.986;2023-07-16T22:29:42;101081.81;;;27.49;43.58
58245;BME280;44550;43.864;25.986;2023-07-16T22:34:40;101072.41;;;27.72;42.82
58245;BME280;44550;43.864;25.986;2023-07-16T22:38:56;101083.50;;;27.66;42.70
58245;BME280;44550;43.864;25.986;2023-07-16T22:43:37;101074.59;;;27.65;42.70
58245;BME280;44550;43.864;25.986;2023-07-16T22:47:43;101090.91;;;27.92;41.86
58245;BME280;44550;43.864;25.986;2023-07-16T22:51:54;101092.94;;;28.17;41.12
58245;BME280;44550;43.864;25.986;2023-07-16T22:56:08;101094.09;;;28.13;41.25
58245;BME280;44550;43.864;25.986;2023-07-16T23:00:50;101086.94;;;28.56;40.34
58245;BME280;44550;43.864;25.986;2023-07-16T23:09:58;101097.63;;;28.58;40.31
58245;BME280;44550;43.864;25.986;2023-07-16T23:14:15;101083.88;;;28.63;39.95
58245;BME280;44550;43.864;25.986;2023-07-16T23:18:40;101094.53;;;27.91;41.29
58245;BME280;44550;43.864;25.986;2023-07-16T23:23:14;101112.94;;;28.13;40.86
58245;BME280;44550;43.864;25.986;2023-07-16T23:34:43;101104.16;;;28.54;39.92
58245;BME280;44550;43.864;25.986;2023-07-16T23:38:13;101108.63;;;28.25;40.46
58245;BME280;44550;43.864;25.986;2023-07-16T23:42:43;101096.78;;;28.13;40.67
58245;BME280;44550;43.864;25.986;2023-07-16T23:52:09;101100.75;;;28.22;40.55
58245;BME280;44550;43.864;25.986;2023-07-16T23:57:30;101101.97;;;28.16;40.40
